Station Historical Data
Daily Summary for January 10, 2018 Units:  Metric    English   Both
« Previous Day
Next Day »
Daily Weekly Monthly Yearly Custom
  High: Low: Average:
Temperature: 9.2 °C -7.3 °C 6.7 °C
Dew Point: 4.1 °C -9.3 °C 2.9 °C
Humidity: 86% 58% 77%
Wind Speed: 16.1km/h 0km/h 8.5km/h
Wind Gust: 24.1km/h - -
Wind- - South
Pressure: 1026.3 hPa 1017.8 hPa -
Precipitation: 0 mm    
Historical Graphs
 
 
Tabular Data for January 10, 2018
Time Temperature Dew Point Pressure Wind Wind Speed Wind Gust Humidity Rainfall Rate (Hourly)
08:09 -7.3 °C -9.3 °C 1026.3 hPa Calm   4.8 km/h 86% 0 mm
08:59 -5.2 °C -7.3 °C 1025.6 hPa SE 1.6 km/h 6.4 km/h 85% 0 mm
09:49 -2.1 °C -6.3 °C 1025.3 hPa ESE 1.6 km/h 6.4 km/h 73% 0 mm
12:09 3.9 °C -3.6 °C 1022.2 hPa East 1.6 km/h 4.8 km/h 58% 0.25 mm
19:09 6.7 °C 4 °C 1018.5 hPa SSW 9.7 km/h 12.9 km/h 83% 0 mm
19:19 6.7 °C 3.9 °C 1018.5 hPa South 9.7 km/h 14.5 km/h 82% 0.25 mm
19:24 6.7 °C 3.8 °C 1018.5 hPa South 11.3 km/h 12.9 km/h 82% 0.25 mm
19:29 6.7 °C 3.9 °C 1018.5 hPa South 6.4 km/h 14.5 km/h 82% 0.25 mm
19:39 6.9 °C 4 °C 1018.5 hPa South 8 km/h 16.1 km/h 82% 0.25 mm
19:44 6.9 °C 4 °C 1018.5 hPa South 8 km/h 16.1 km/h 82% 0.25 mm
19:49 6.9 °C 4.1 °C 1018.5 hPa South 9.7 km/h 17.7 km/h 82% 0.25 mm
19:54 6.9 °C 3.9 °C 1018.5 hPa South 8 km/h 12.9 km/h 81% 0.25 mm
19:59 6.9 °C 3.8 °C 1018.5 hPa SSE 12.9 km/h 14.5 km/h 81% 0.25 mm
20:04 6.9 °C 3.8 °C 1018.5 hPa South 8 km/h 14.5 km/h 81% 0.25 mm
20:09 6.8 °C 3.8 °C 1018.5 hPa South 6.4 km/h 12.9 km/h 81% 0.25 mm
20:14 6.8 °C 3.8 °C 1018.5 hPa South 8 km/h 14.5 km/h 81% 0 mm
20:19 6.9 °C 3.8 °C 1018.2 hPa SSW 4.8 km/h 17.7 km/h 81% 0 mm
20:24 6.9 °C 3.9 °C 1018.5 hPa South 8 km/h 17.7 km/h 81% 0 mm
20:29 7.1 °C 3.8 °C 1018.5 hPa South 16.1 km/h 19.3 km/h 80% 0 mm
20:34 7.1 °C 3.9 °C 1018.2 hPa South 9.7 km/h 19.3 km/h 80% 0 mm
20:39 7.1 °C 3.9 °C 1018.5 hPa South 9.7 km/h 16.1 km/h 80% 0 mm
20:44 7.2 °C 3.8 °C 1018.5 hPa South 9.7 km/h 20.9 km/h 79% 0 mm
20:49 7.2 °C 3.8 °C 1018.5 hPa South 9.7 km/h 20.9 km/h 79% 0 mm
21:09 7.1 °C 3.6 °C 1018.5 hPa South 8 km/h 17.7 km/h 78% 0 mm
21:14 7.1 °C 3.5 °C 1018.8 hPa South 4.8 km/h 11.3 km/h 78% 0 mm
21:24 7.3 °C 3.7 °C 1018.5 hPa SSW 6.4 km/h 19.3 km/h 78% 0 mm
21:29 7.4 °C 3.7 °C 1018.5 hPa SSE 9.7 km/h 17.7 km/h 77% 0 mm
21:34 7.4 °C 3.7 °C 1018.5 hPa SSW 11.3 km/h 17.7 km/h 77% 0 mm
21:39 7.4 °C 3.5 °C 1018.5 hPa SSE 12.9 km/h 22.5 km/h 76% 0 mm
21:44 7.4 °C 3.5 °C 1018.5 hPa South 4.8 km/h 14.5 km/h 76% 0 mm
21:49 7.4 °C 3.4 °C 1018.5 hPa South 9.7 km/h 16.1 km/h 76% 0 mm
21:54 7.3 °C 3.4 °C 1018.5 hPa South 8 km/h 22.5 km/h 76% 0 mm
21:59 7.4 °C 3.5 °C 1018.5 hPa South 8 km/h 22.5 km/h 76% 0 mm
22:09 7.6 °C 3.6 °C 1018.5 hPa South 8 km/h 20.9 km/h 76% 0 mm
22:14 7.6 °C 3.6 °C 1018.5 hPa South 8 km/h 19.3 km/h 76% 0 mm
22:19 7.6 °C 3.6 °C 1018.5 hPa South 8 km/h 12.9 km/h 76% 0 mm
22:24 7.6 °C 3.6 °C 1018.5 hPa South 11.3 km/h 19.3 km/h 76% 0 mm
22:29 7.6 °C 3.6 °C 1018.5 hPa South 9.7 km/h 19.3 km/h 76% 0 mm
22:34 7.6 °C 3.7 °C 1018.5 hPa SSW 11.3 km/h 20.9 km/h 76% 0 mm
22:39 7.7 °C 3.5 °C 1018.5 hPa South 9.7 km/h 17.7 km/h 75% 0 mm
22:44 7.7 °C 3.5 °C 1018.5 hPa South 9.7 km/h 19.3 km/h 75% 0 mm
22:49 7.7 °C 3.5 °C 1018.5 hPa South 8 km/h 17.7 km/h 75% 0 mm
22:54 7.7 °C 3.5 °C 1018.5 hPa South 6.4 km/h 19.3 km/h 75% 0 mm
22:59 7.7 °C 3.3 °C 1018.5 hPa South 8 km/h 19.3 km/h 74% 0 mm
23:04 7.8 °C 3.5 °C 1018.2 hPa South 8 km/h 17.7 km/h 74% 0 mm
23:09 7.8 °C 3.4 °C 1018.2 hPa South 8 km/h 17.7 km/h 74% 0 mm
23:14 7.9 °C 3.6 °C 1018.2 hPa South 8 km/h 16.1 km/h 74% 0 mm
23:24 8.1 °C 3.5 °C 1018.2 hPa SSW 11.3 km/h 20.9 km/h 73% 0 mm
23:29 8.1 °C 3.6 °C 1018.2 hPa South 9.7 km/h 20.9 km/h 73% 0 mm
23:34 8.3 °C 3.7 °C 1018.2 hPa South 14.5 km/h 22.5 km/h 73% 0 mm
23:39 8.3 °C 3.8 °C 1018.2 hPa South 9.7 km/h 22.5 km/h 73% 0 mm
23:44 8.5 °C 3.9 °C 1018.2 hPa SSW 11.3 km/h 20.9 km/h 73% 0 mm
23:49 8.8 °C 4 °C 1017.8 hPa South 6.4 km/h 22.5 km/h 72% 0 mm
23:59 9.2 °C 4.1 °C 1017.8 hPa South 12.9 km/h 24.1 km/h 70% 0 mm
Buffalo, New York, USA
Compliments of Weather Underground - 1.25 mb